Time;durP1;ratioP1;P1;durP2;ratioP2;P2;SDS_P1;SDS_P2;PMS_P1;PMS_P2;Temp;Humidity;BMP_temperature;BMP_pressure;BME280_temperature;BME280_humidity;BME280_pressure;Samples;Min_cycle;Max_cycle;Signal;HPM_P1;HPM_P2
2024/03/26 00:00:37;;;;;;;15.05;5.35;;;;;;;-141.50;100.00;63355.56;4917747;29;20127;-85
2024/03/26 00:03:03;;;;;;;12.95;4.80;;;;;;;-141.50;100.00;63355.56;4917234;29;20064;-83
2024/03/26 00:05:29;;;;;;;16.25;5.05;;;;;;;-141.50;100.00;63355.56;4918226;29;20074;-84
2024/03/26 00:07:55;;;;;;;11.32;3.67;;;;;;;-141.50;100.00;63355.56;4893941;29;20044;-85
2024/03/26 00:10:21;;;;;;;14.73;4.40;;;;;;;-141.50;100.00;63355.56;4901655;29;20326;-86
2024/03/26 00:12:47;;;;;;;12.05;4.20;;;;;;;-141.50;100.00;63355.56;4917101;29;20079;-85
2024/03/26 00:15:13;;;;;;;10.05;3.65;;;;;;;-141.50;100.00;63355.56;4919999;29;20289;-84
2024/03/26 00:17:39;;;;;;;7.57;3.40;;;;;;;-141.50;100.00;63355.56;4917734;29;20059;-85
2024/03/26 00:20:05;;;;;;;10.55;3.80;;;;;;;-141.50;100.00;63355.56;4917551;29;20059;-85
2024/03/26 00:22:31;;;;;;;7.63;3.05;;;;;;;-141.50;100.00;63355.56;4891098;29;20054;-85
2024/03/26 00:24:57;;;;;;;7.22;3.08;;;;;;;-141.50;100.00;63355.56;4909844;29;20059;-86
2024/03/26 00:27:23;;;;;;;10.27;3.08;;;;;;;-141.50;100.00;63355.56;4912833;29;20115;-88
2024/03/26 00:29:48;;;;;;;7.07;3.55;;;;;;;-141.50;100.00;63355.56;4932671;29;20066;-83
2024/03/26 00:32:15;;;;;;;7.40;2.92;;;;;;;-141.50;100.00;63355.56;4914690;28;20047;-85
2024/03/26 00:34:40;;;;;;;12.85;3.38;;;;;;;-141.50;100.00;63355.56;4910755;29;20053;-85
2024/03/26 00:37:07;;;;;;;8.63;3.67;;;;;;;-141.50;100.00;63355.56;4912040;29;20130;-84
2024/03/26 00:39:33;;;;;;;10.18;3.33;;;;;;;-141.50;100.00;63355.56;4915836;29;20152;-84
2024/03/26 00:41:58;;;;;;;8.18;3.67;;;;;;;-141.50;100.00;63355.56;4915588;29;20566;-85
2024/03/26 00:44:24;;;;;;;11.30;3.53;;;;;;;-141.50;100.00;63355.56;4914938;29;20106;-84
2024/03/26 00:46:50;;;;;;;11.68;3.65;;;;;;;-141.50;100.00;63355.56;4917127;29;20060;-82
2024/03/26 00:49:16;;;;;;;11.38;3.75;;;;;;;-141.50;100.00;63355.56;4916741;29;20066;-83
2024/03/26 00:51:44;;;;;;;15.85;3.97;;;;;;;-141.50;100.00;63355.56;4916668;29;20284;-86
2024/03/26 00:54:11;;;;;;;13.35;4.30;;;;;;;-141.50;100.00;63355.56;4915748;29;20635;-87
2024/03/26 00:56:37;;;;;;;13.25;4.05;;;;;;;-141.50;100.00;63355.56;4916404;29;20063;-83
2024/03/26 00:59:03;;;;;;;13.15;4.28;;;;;;;-141.50;100.00;63355.56;4912812;29;20517;-83
2024/03/26 01:01:28;;;;;;;7.25;3.42;;;;;;;-141.50;100.00;63355.56;4914894;29;20063;-84
2024/03/26 01:03:54;;;;;;;11.65;3.53;;;;;;;-141.50;100.00;63355.56;4912019;29;20111;-85
2024/03/26 01:06:20;;;;;;;10.48;3.42;;;;;;;-141.50;100.00;63355.56;4930771;29;20211;-84
2024/03/26 01:08:46;;;;;;;8.48;3.67;;;;;;;-141.50;100.00;63355.56;4917530;29;20059;-84
2024/03/26 01:11:13;;;;;;;8.75;3.42;;;;;;;-141.50;100.00;63355.56;4898194;29;20064;-85
2024/03/26 01:13:40;;;;;;;7.18;3.42;;;;;;;-141.50;100.00;63355.56;4916034;29;20059;-83
2024/03/26 01:16:06;;;;;;;10.82;3.53;;;;;;;-141.50;100.00;63355.56;4916584;29;20047;-83
2024/03/26 01:18:32;;;;;;;10.70;3.95;;;;;;;-141.50;100.00;63355.56;4915346;29;20583;-84
2024/03/26 01:20:58;;;;;;;13.30;4.25;;;;;;;-141.50;100.00;63355.56;4914215;29;20056;-85
2024/03/26 01:23:24;;;;;;;9.25;3.55;;;;;;;-141.50;100.00;63355.56;4909389;29;20051;-85
2024/03/26 01:25:50;;;;;;;11.02;3.72;;;;;;;-141.50;100.00;63355.56;4919442;29;20063;-85
2024/03/26 01:28:16;;;;;;;9.68;3.55;;;;;;;-141.50;100.00;63355.56;4908938;29;20048;-85
2024/03/26 01:30:42;;;;;;;13.65;4.30;;;;;;;-141.50;100.00;63355.56;4917592;29;20059;-85
2024/03/26 01:33:08;;;;;;;13.07;4.22;;;;;;;-141.50;100.00;63355.56;4920434;29;20092;-84
2024/03/26 01:35:34;;;;;;;9.95;3.97;;;;;;;-141.50;100.00;63355.56;4904799;29;20067;-84
2024/03/26 01:38:00;;;;;;;11.73;4.10;;;;;;;-141.50;100.00;63355.56;4918991;28;20060;-84
2024/03/26 01:40:26;;;;;;;10.30;4.05;;;;;;;-141.50;100.00;63355.56;4921018;29;20532;-85
2024/03/26 01:42:51;;;;;;;8.75;3.80;;;;;;;-141.50;100.00;63355.56;4917225;29;20643;-85
2024/03/26 01:45:17;;;;;;;8.48;3.65;;;;;;;-141.50;100.00;63355.56;4904814;29;20063;-83
2024/03/26 01:47:45;;;;;;;9.77;3.80;;;;;;;-141.50;100.00;63355.56;4938463;29;20056;-85
2024/03/26 01:50:12;;;;;;;7.45;3.47;;;;;;;-141.50;100.00;63355.56;4921319;29;20059;-84
2024/03/26 01:52:39;;;;;;;10.23;4.00;;;;;;;-141.50;100.00;63355.56;4920083;29;20110;-84
2024/03/26 01:55:07;;;;;;;12.85;4.35;;;;;;;-141.50;100.00;63355.56;4929506;29;20560;-84
2024/03/26 01:57:35;;;;;;;10.07;3.95;;;;;;;-141.50;100.00;63355.56;4926124;29;20500;-84
2024/03/26 02:00:02;;;;;;;7.78;3.42;;;;;;;-141.50;100.00;63355.56;4929623;29;20052;-84
2024/03/26 02:02:37;;;;;;;7.95;3.45;;;;;;;-141.50;100.00;63355.56;4913653;29;20067;-87
2024/03/26 02:05:04;;;;;;;10.73;3.67;;;;;;;-141.50;100.00;63355.56;4921254;28;20588;-83
2024/03/26 02:07:30;;;;;;;11.65;3.67;;;;;;;-141.50;100.00;63355.56;4921430;29;20042;-84
2024/03/26 02:09:56;;;;;;;9.65;4.00;;;;;;;-141.50;100.00;63355.56;4919885;29;20052;-82
2024/03/26 02:12:22;;;;;;;10.05;3.75;;;;;;;-141.50;100.00;63355.56;4913971;29;20396;-84
2024/03/26 02:14:48;;;;;;;8.43;3.33;;;;;;;-141.50;100.00;63355.56;4917123;29;20066;-84
2024/03/26 02:17:14;;;;;;;13.07;4.20;;;;;;;-141.50;100.00;63355.56;4923678;29;23014;-84
2024/03/26 02:19:40;;;;;;;10.88;3.80;;;;;;;-141.50;100.00;63355.56;4918401;28;20474;-84
2024/03/26 02:22:06;;;;;;;7.88;3.53;;;;;;;-141.50;100.00;63355.56;4918321;29;20059;-85
2024/03/26 02:24:32;;;;;;;9.98;3.67;;;;;;;-141.50;100.00;63355.56;4914537;29;20119;-81
2024/03/26 02:26:59;;;;;;;10.25;3.70;;;;;;;-141.50;100.00;63355.56;4917524;29;20135;-84
2024/03/26 02:29:25;;;;;;;10.57;3.17;;;;;;;-141.50;100.00;63355.56;4909069;29;20055;-86
2024/03/26 02:31:51;;;;;;;8.73;3.65;;;;;;;-141.50;100.00;63355.56;4917687;29;20141;-85
2024/03/26 02:34:17;;;;;;;7.13;3.25;;;;;;;-141.50;100.00;63355.56;4918671;29;20554;-85
2024/03/26 02:36:43;;;;;;;7.43;3.50;;;;;;;-141.50;100.00;63355.56;4914097;29;20090;-86
2024/03/26 02:39:09;;;;;;;11.25;3.58;;;;;;;-141.50;100.00;63355.56;4918769;29;20044;-85
2024/03/26 02:41:38;;;;;;;8.32;3.72;;;;;;;-141.50;100.00;63355.56;4916465;29;20481;-84
2024/03/26 02:44:04;;;;;;;18.15;4.03;;;;;;;-141.50;100.00;63355.56;4917170;29;20047;-81
2024/03/26 02:46:30;;;;;;;10.38;3.25;;;;;;;-141.50;100.00;63355.56;4909673;29;20044;-84
2024/03/26 02:48:58;;;;;;;9.77;3.75;;;;;;;-141.50;100.00;63355.56;4916832;29;20114;-82
2024/03/26 02:51:24;;;;;;;7.43;3.53;;;;;;;-141.50;100.00;63355.56;4913354;29;20134;-85
2024/03/26 02:53:50;;;;;;;10.18;3.60;;;;;;;-141.50;100.00;63355.56;4924719;29;20071;-83
2024/03/26 02:56:16;;;;;;;8.88;3.65;;;;;;;-141.50;100.00;63355.56;4925675;29;20059;-85
2024/03/26 02:58:42;;;;;;;8.75;3.40;;;;;;;-141.50;100.00;63355.56;4914914;29;20091;-85
2024/03/26 03:01:12;;;;;;;7.07;3.08;;;;;;;-141.50;100.00;63355.56;4920066;29;20142;-85
2024/03/26 03:03:39;;;;;;;8.65;3.45;;;;;;;-141.50;100.00;63355.56;4919164;29;20139;-85
2024/03/26 03:06:06;;;;;;;8.52;3.47;;;;;;;-141.50;100.00;63355.56;4919188;28;20052;-86
2024/03/26 03:08:32;;;;;;;6.88;3.50;;;;;;;-141.50;100.00;63355.56;4920204;29;20566;-84
2024/03/26 03:10:58;;;;;;;10.13;3.72;;;;;;;-141.50;100.00;63355.56;4905211;29;20048;-87
2024/03/26 03:13:24;;;;;;;6.57;3.38;;;;;;;-141.50;100.00;63355.56;4915773;29;20048;-86
2024/03/26 03:15:50;;;;;;;7.00;3.05;;;;;;;-141.50;100.00;63355.56;4916630;29;20060;-84
2024/03/26 03:18:15;;;;;;;8.15;3.45;;;;;;;-141.50;100.00;63355.56;4923376;29;20059;-84
2024/03/26 03:20:42;;;;;;;9.43;3.67;;;;;;;-141.50;100.00;63355.56;4916337;29;20060;-83
2024/03/26 03:23:08;;;;;;;7.32;3.30;;;;;;;-141.50;100.00;63355.56;4916143;29;20112;-84
2024/03/26 03:25:34;;;;;;;8.65;2.97;;;;;;;-141.50;100.00;63355.56;4917528;29;20038;-85
2024/03/26 03:28:00;;;;;;;6.38;3.42;;;;;;;-141.50;100.00;63355.56;4917333;29;20060;-84
2024/03/26 03:30:26;;;;;;;7.88;3.78;;;;;;;-141.50;100.00;63355.56;4917571;29;20056;-83
2024/03/26 03:32:52;;;;;;;6.85;3.47;;;;;;;-141.50;100.00;63355.56;4917379;29;20063;-82
2024/03/26 03:35:18;;;;;;;11.13;3.42;;;;;;;-141.50;100.00;63355.56;4916796;29;20052;-82
2024/03/26 03:37:45;;;;;;;8.55;3.22;;;;;;;-141.50;100.00;63355.56;4916827;29;20068;-83
2024/03/26 03:40:11;;;;;;;10.20;3.35;;;;;;;-141.50;100.00;63355.56;4901365;29;20064;-86
2024/03/26 03:42:37;;;;;;;6.22;2.70;;;;;;;-141.50;100.00;63355.56;4918113;29;20096;-84
2024/03/26 03:45:04;;;;;;;10.05;3.17;;;;;;;-141.50;100.00;63355.56;4916679;28;20059;-84
2024/03/26 03:47:30;;;;;;;9.77;3.17;;;;;;;-141.50;100.00;63355.56;4916010;29;20040;-84
2024/03/26 03:49:56;;;;;;;7.30;3.13;;;;;;;-141.50;100.00;63355.56;4912113;29;20062;-85
2024/03/26 03:52:22;;;;;;;7.25;3.05;;;;;;;-141.50;100.00;63355.56;4919995;29;20040;-85
2024/03/26 03:54:49;;;;;;;9.50;3.30;;;;;;;-141.50;100.00;63355.56;4905612;29;20418;-83
2024/03/26 03:57:14;;;;;;;7.72;3.13;;;;;;;-141.50;100.00;63355.56;4916287;29;20230;-82
2024/03/26 03:59:40;;;;;;;9.88;3.35;;;;;;;-141.50;100.00;63355.56;4915947;29;20107;-84
2024/03/26 04:02:06;;;;;;;8.88;2.97;;;;;;;-141.50;100.00;63355.56;4916643;29;20478;-82
2024/03/26 04:04:32;;;;;;;6.20;2.95;;;;;;;-141.50;100.00;63355.56;4900195;29;20502;-82
2024/03/26 04:06:58;;;;;;;6.18;2.80;;;;;;;-141.50;100.00;63355.56;4923738;29;20064;-83
2024/03/26 04:09:24;;;;;;;6.40;2.72;;;;;;;-141.50;100.00;63355.56;4914372;29;20055;-84
2024/03/26 04:11:51;;;;;;;5.95;3.08;;;;;;;-141.50;100.00;63355.56;4900777;29;20079;-83
2024/03/26 04:14:16;;;;;;;7.25;2.90;;;;;;;-141.50;100.00;63355.56;4897927;29;20048;-83
2024/03/26 04:16:46;;;;;;;6.60;2.95;;;;;;;-141.50;100.00;63355.56;4911798;29;20058;-83
2024/03/26 04:19:12;;;;;;;5.63;2.50;;;;;;;-141.50;100.00;63355.56;4915496;29;20458;-85
2024/03/26 04:21:38;;;;;;;5.32;2.15;;;;;;;-141.50;100.00;63355.56;4914550;29;20088;-83
2024/03/26 04:24:06;;;;;;;6.07;2.80;;;;;;;-141.50;100.00;63355.56;4916256;29;20052;-83
2024/03/26 04:26:36;;;;;;;8.55;2.30;;;;;;;-141.50;100.00;63355.56;4922430;28;20139;-83
2024/03/26 04:29:02;;;;;;;5.40;2.65;;;;;;;-141.50;100.00;63355.56;4917980;29;20108;-85
2024/03/26 04:31:28;;;;;;;4.78;2.17;;;;;;;-141.50;100.00;63355.56;4915762;29;20079;-84
2024/03/26 04:33:54;;;;;;;7.50;2.38;;;;;;;-141.50;100.00;63355.56;4916715;29;20063;-83
2024/03/26 04:36:23;;;;;;;5.32;2.60;;;;;;;-141.50;100.00;63355.56;4931684;28;20389;-84
2024/03/26 04:38:49;;;;;;;5.80;2.22;;;;;;;-141.50;100.00;63355.56;4912943;29;20059;-84
2024/03/26 04:41:15;;;;;;;7.88;2.53;;;;;;;-141.50;100.00;63355.56;4923918;28;20051;-85
2024/03/26 04:43:41;;;;;;;9.15;2.67;;;;;;;-141.50;100.00;63355.56;4921341;29;20079;-85
2024/03/26 04:46:07;;;;;;;6.57;2.15;;;;;;;-141.50;100.00;63355.56;4918050;29;20055;-87
2024/03/26 04:48:33;;;;;;;4.60;2.33;;;;;;;-141.50;100.00;63355.56;4918190;29;20078;-85
2024/03/26 04:50:59;;;;;;;4.82;2.40;;;;;;;-141.50;100.00;63355.56;4914276;29;20059;-85
2024/03/26 04:53:24;;;;;;;4.32;2.00;;;;;;;-141.50;100.00;63355.56;4914875;29;20052;-87
2024/03/26 04:55:50;;;;;;;6.32;2.38;;;;;;;-141.50;100.00;63355.56;4914321;29;20043;-86
2024/03/26 04:58:16;;;;;;;4.50;1.95;;;;;;;-141.50;100.00;63355.56;4914024;29;20568;-85
2024/03/26 05:00:42;;;;;;;4.82;2.20;;;;;;;-141.50;100.00;63355.56;4907885;29;20044;-87
2024/03/26 05:03:09;;;;;;;5.60;2.58;;;;;;;-141.50;100.00;63355.56;4917897;29;20047;-87
2024/03/26 05:05:35;;;;;;;5.45;2.17;;;;;;;-141.50;100.00;63355.56;4935233;29;20505;-87
2024/03/26 05:08:01;;;;;;;5.20;2.63;;;;;;;-141.50;100.00;63355.56;4915465;29;20060;-85
2024/03/26 05:10:30;;;;;;;6.93;2.80;;;;;;;-141.50;100.00;63355.56;4914711;29;20051;-85
2024/03/26 05:12:55;;;;;;;7.32;2.50;;;;;;;-141.50;100.00;63355.56;4896209;29;20051;-84
2024/03/26 05:15:21;;;;;;;7.53;2.58;;;;;;;-141.50;100.00;63355.56;4917169;29;20099;-86
2024/03/26 05:17:47;;;;;;;7.32;2.67;;;;;;;-141.50;100.00;63355.56;4916896;29;20048;-85
2024/03/26 05:20:13;;;;;;;4.90;2.80;;;;;;;-141.50;100.00;63355.56;4914531;29;20086;-86
2024/03/26 05:22:39;;;;;;;12.27;2.63;;;;;;;-141.50;100.00;63355.56;4916991;29;20476;-85
2024/03/26 05:25:06;;;;;;;5.55;2.40;;;;;;;-141.50;100.00;63355.56;4916931;29;20146;-85
2024/03/26 05:27:32;;;;;;;6.20;2.88;;;;;;;-141.50;100.00;63355.56;4918449;29;20409;-84
2024/03/26 05:29:58;;;;;;;7.88;3.30;;;;;;;-141.50;100.00;63355.56;4917615;28;20055;-84
2024/03/26 05:32:24;;;;;;;6.28;3.20;;;;;;;-141.50;100.00;63355.56;4909210;29;20059;-86
2024/03/26 05:34:50;;;;;;;6.25;2.45;;;;;;;-141.50;100.00;63355.56;4911795;29;20131;-85
2024/03/26 05:37:16;;;;;;;5.78;2.92;;;;;;;-141.50;100.00;63355.56;4914243;29;20576;-86
2024/03/26 05:39:43;;;;;;;7.40;2.90;;;;;;;-141.50;100.00;63355.56;4925506;28;20070;-86
2024/03/26 05:42:09;;;;;;;6.85;3.25;;;;;;;-141.50;100.00;63355.56;4911502;29;20172;-85
2024/03/26 05:44:36;;;;;;;7.70;3.38;;;;;;;-141.50;100.00;63355.56;4918462;29;20131;-84
2024/03/26 05:47:02;;;;;;;6.85;2.70;;;;;;;-141.50;100.00;63355.56;4915605;29;20224;-84
2024/03/26 05:49:27;;;;;;;5.72;2.60;;;;;;;-141.50;100.00;63355.56;4916224;29;20043;-84
2024/03/26 05:51:53;;;;;;;8.13;3.17;;;;;;;-141.50;100.00;63355.56;4917121;29;20509;-85
2024/03/26 05:54:19;;;;;;;8.63;3.03;;;;;;;-141.50;100.00;63355.56;4916271;29;20059;-85
2024/03/26 05:56:45;;;;;;;8.68;3.42;;;;;;;-141.50;100.00;63355.56;4924679;29;20456;-85
2024/03/26 05:59:11;;;;;;;6.32;3.03;;;;;;;-141.50;100.00;63355.56;4915877;29;20126;-85
2024/03/26 06:01:37;;;;;;;6.40;3.22;;;;;;;-141.50;100.00;63355.56;4913413;29;20471;-86
2024/03/26 06:04:04;;;;;;;6.55;3.22;;;;;;;-141.50;100.00;63355.56;4901258;29;20052;-85
2024/03/26 06:06:29;;;;;;;7.53;3.15;;;;;;;-141.50;100.00;63355.56;4917212;29;20052;-86
2024/03/26 06:08:55;;;;;;;7.32;3.53;;;;;;;-141.50;100.00;63355.56;4906770;28;20050;-84
2024/03/26 06:11:22;;;;;;;8.82;3.42;;;;;;;-141.50;100.00;63355.56;4917507;29;20047;-85
2024/03/26 06:13:48;;;;;;;11.25;4.70;;;;;;;-141.50;100.00;63355.56;4919559;29;20074;-86
2024/03/26 06:16:14;;;;;;;27.65;7.80;;;;;;;-141.50;100.00;63355.56;4919253;28;20063;-86
2024/03/26 06:18:39;;;;;;;8.75;4.30;;;;;;;-141.50;100.00;63355.56;4926359;28;20083;-85
2024/03/26 06:21:06;;;;;;;7.20;3.40;;;;;;;-141.50;100.00;63355.56;4920596;29;20064;-86
2024/03/26 06:23:32;;;;;;;6.20;2.83;;;;;;;-141.50;100.00;63355.56;4920305;29;20063;-85
2024/03/26 06:25:58;;;;;;;6.68;3.17;;;;;;;-141.50;100.00;63355.56;4919736;28;20055;-87
2024/03/26 06:28:25;;;;;;;7.40;3.13;;;;;;;-141.50;100.00;63355.56;4921274;29;20048;-86
2024/03/26 06:30:51;;;;;;;9.60;3.70;;;;;;;-141.50;100.00;63355.56;4936686;28;20149;-85
2024/03/26 06:33:17;;;;;;;6.75;3.70;;;;;;;-141.50;100.00;63355.56;4928181;29;20063;-87
2024/03/26 06:35:43;;;;;;;6.57;3.38;;;;;;;-141.50;100.00;63355.56;4926037;29;20066;-85
2024/03/26 06:38:10;;;;;;;17.88;7.47;;;;;;;-141.50;100.00;63355.56;4917705;29;20547;-84
2024/03/26 06:40:37;;;;;;;14.57;5.57;;;;;;;-141.50;100.00;63355.56;4941147;29;20048;-84
2024/03/26 06:43:07;;;;;;;6.57;3.25;;;;;;;-141.50;100.00;63355.56;4922199;28;20067;-86
2024/03/26 06:45:33;;;;;;;10.95;3.95;;;;;;;-141.50;100.00;63355.56;4924220;29;20143;-84
2024/03/26 06:48:00;;;;;;;10.32;3.55;;;;;;;-141.50;100.00;63355.56;4922675;28;20138;-84
2024/03/26 06:50:26;;;;;;;7.95;3.47;;;;;;;-141.50;100.00;63355.56;4935828;29;20073;-83
2024/03/26 06:52:52;;;;;;;9.15;3.50;;;;;;;-141.50;100.00;63355.56;4926281;28;20048;-85
2024/03/26 06:55:22;;;;;;;9.75;3.67;;;;;;;-141.50;100.00;63355.56;4924032;28;20039;-85
2024/03/26 06:57:48;;;;;;;11.13;3.60;;;;;;;-141.50;100.00;63355.56;4922413;29;20048;-86
2024/03/26 07:00:14;;;;;;;7.55;3.63;;;;;;;-141.50;100.00;63355.56;4927253;29;20079;-85
2024/03/26 07:02:41;;;;;;;9.18;3.22;;;;;;;-141.50;100.00;63355.56;4919665;29;20138;-84
2024/03/26 07:05:11;;;;;;;7.50;3.75;;;;;;;-141.50;100.00;63355.56;4939264;28;20071;-84
2024/03/26 07:07:39;;;;;;;5.93;3.10;;;;;;;-141.50;100.00;63355.56;4935653;28;20059;-83
2024/03/26 07:10:06;;;;;;;8.30;3.78;;;;;;;-141.50;100.00;63355.56;4920011;29;20055;-85
2024/03/26 07:12:33;;;;;;;8.73;3.63;;;;;;;-141.50;100.00;63355.56;4928316;29;20043;-86
2024/03/26 07:15:00;;;;;;;10.52;3.78;;;;;;;-141.50;100.00;63355.56;4908873;28;20055;-87
2024/03/26 07:17:29;;;;;;;6.72;3.50;;;;;;;-141.50;100.00;63355.56;4925186;29;20378;-87
2024/03/26 07:19:56;;;;;;;8.55;3.83;;;;;;;-141.50;100.00;63355.56;4921304;29;20046;-85
2024/03/26 07:22:24;;;;;;;7.05;3.60;;;;;;;-141.50;100.00;63355.56;4905591;29;20558;-85
2024/03/26 07:24:51;;;;;;;9.35;4.28;;;;;;;-141.50;100.00;63355.56;4917837;29;20087;-85
2024/03/26 07:27:18;;;;;;;7.45;3.90;;;;;;;-141.50;100.00;63355.56;4901464;29;20505;-86
2024/03/26 07:29:47;;;;;;;7.50;3.97;;;;;;;-141.50;100.00;63355.56;4919321;29;20079;-87
2024/03/26 07:32:13;;;;;;;10.02;3.83;;;;;;;-141.50;100.00;63355.56;4932896;29;20060;-85
2024/03/26 07:34:39;;;;;;;8.15;3.95;;;;;;;-141.50;100.00;63355.56;4922985;29;20048;-85
2024/03/26 07:37:07;;;;;;;6.10;3.55;;;;;;;-141.50;100.00;63355.56;4910557;28;20156;-87
2024/03/26 07:39:35;;;;;;;9.48;4.32;;;;;;;-141.50;100.00;63355.56;4933721;28;20098;-86
2024/03/26 07:42:01;;;;;;;9.02;4.20;;;;;;;-141.50;100.00;63355.56;4917489;29;20051;-88
2024/03/26 07:44:29;;;;;;;9.57;3.95;;;;;;;-141.50;100.00;63355.56;4935202;28;20078;-89
2024/03/26 07:46:55;;;;;;;7.22;3.92;;;;;;;-141.50;100.00;63355.56;4933780;28;20052;-86
2024/03/26 07:49:21;;;;;;;8.35;4.28;;;;;;;-141.50;100.00;63355.56;4916751;29;20090;-86
2024/03/26 07:51:48;;;;;;;9.90;4.30;;;;;;;-141.50;100.00;63355.56;4933850;29;20071;-87
2024/03/26 07:54:14;;;;;;;8.43;4.22;;;;;;;-141.50;100.00;63355.56;4920409;29;20059;-86
2024/03/26 07:56:43;;;;;;;9.38;4.45;;;;;;;-141.50;100.00;63355.56;4923348;29;20544;-87
2024/03/26 07:59:09;;;;;;;12.55;4.47;;;;;;;-141.50;100.00;63355.56;4908012;29;20056;-86
2024/03/26 08:01:35;;;;;;;8.85;4.55;;;;;;;-141.50;100.00;63355.56;4908266;29;20048;-86
2024/03/26 08:04:01;;;;;;;8.65;4.68;;;;;;;-141.50;100.00;63355.56;4931101;29;20072;-88
2024/03/26 08:06:27;;;;;;;8.48;4.75;;;;;;;-141.50;100.00;63355.56;4920504;29;20047;-89
2024/03/26 08:08:53;;;;;;;9.93;4.97;;;;;;;-141.50;100.00;63355.56;4936646;28;20087;-88
2024/03/26 08:11:23;;;;;;;11.88;4.72;;;;;;;-141.50;100.00;63355.56;4917801;29;20048;-86
2024/03/26 08:13:53;;;;;;;9.63;4.75;;;;;;;-141.50;100.00;63355.56;4921840;29;20067;-87
2024/03/26 08:16:19;;;;;;;8.75;4.70;;;;;;;-141.50;100.00;63355.56;4918619;29;20032;-88
2024/03/26 08:18:45;;;;;;;6.97;4.28;;;;;;;-141.50;100.00;63355.56;4918798;29;20056;-87
2024/03/26 08:21:11;;;;;;;6.55;4.15;;;;;;;-141.50;100.00;63355.56;4892916;29;20065;-85
2024/03/26 08:23:40;;;;;;;7.53;4.47;;;;;;;-141.50;100.00;63355.56;4887780;29;20079;-86
2024/03/26 08:26:06;;;;;;;10.52;4.60;;;;;;;-141.50;100.00;63355.56;4901233;29;20068;-86
2024/03/26 08:28:35;;;;;;;8.18;4.13;;;;;;;-141.50;100.00;63355.56;4934604;29;20056;-86
2024/03/26 08:31:01;;;;;;;7.03;4.20;;;;;;;-141.50;100.00;63355.56;4905827;29;20059;-86
2024/03/26 08:33:27;;;;;;;8.23;4.78;;;;;;;-141.50;100.00;63355.56;4913441;29;20074;-86
2024/03/26 08:35:54;;;;;;;11.68;4.72;;;;;;;-141.50;100.00;63355.56;4937529;28;20066;-85
2024/03/26 08:38:20;;;;;;;9.90;4.68;;;;;;;-141.50;100.00;63355.56;4932713;28;20067;-85
2024/03/26 08:40:46;;;;;;;7.53;4.28;;;;;;;-141.50;100.00;63355.56;4934131;28;20078;-87
2024/03/26 08:43:11;;;;;;;9.30;4.43;;;;;;;-141.50;100.00;63355.56;4917215;29;20060;-87
2024/03/26 08:45:39;;;;;;;6.70;3.88;;;;;;;-141.50;100.00;63355.56;4933095;28;20428;-87
2024/03/26 08:48:06;;;;;;;8.40;4.03;;;;;;;-141.50;100.00;63355.56;4911227;29;20059;-86
2024/03/26 08:50:32;;;;;;;8.70;4.18;;;;;;;-141.50;100.00;63355.56;4923037;28;20054;-85
2024/03/26 08:52:58;;;;;;;6.53;3.88;;;;;;;-141.50;100.00;63355.56;4917609;28;20055;-87
2024/03/26 08:55:24;;;;;;;8.25;3.33;;;;;;;-141.50;100.00;63355.56;4933351;28;20079;-85
2024/03/26 08:57:50;;;;;;;8.38;4.05;;;;;;;-141.50;100.00;63355.56;4932136;28;20063;-86
2024/03/26 09:00:17;;;;;;;6.72;3.33;;;;;;;-141.50;100.00;63355.56;4929615;28;20063;-86
2024/03/26 09:02:43;;;;;;;8.98;3.95;;;;;;;-141.50;100.00;63355.56;4917534;29;20064;-85
2024/03/26 09:05:09;;;;;;;8.43;3.90;;;;;;;-141.50;100.00;63355.56;4916236;29;20066;-86
2024/03/26 09:07:35;;;;;;;6.22;3.22;;;;;;;-141.50;100.00;63355.56;4915732;29;20059;-87
2024/03/26 09:10:06;;;;;;;6.30;3.08;;;;;;;-141.50;100.00;63355.56;4923649;28;20070;-86
2024/03/26 09:12:35;;;;;;;5.70;3.47;;;;;;;-141.50;100.00;63355.56;4931643;28;20107;-86
2024/03/26 09:15:01;;;;;;;5.55;2.95;;;;;;;-141.50;100.00;63355.56;4917441;29;20428;-86
2024/03/26 09:17:27;;;;;;;6.70;2.95;;;;;;;-141.50;100.00;63355.56;4920176;28;20140;-86
2024/03/26 09:19:53;;;;;;;8.70;2.85;;;;;;;-141.50;100.00;63355.56;4914677;29;20056;-85
2024/03/26 09:22:19;;;;;;;5.38;2.60;;;;;;;-141.50;100.00;63355.56;4913698;29;20493;-85
2024/03/26 09:24:45;;;;;;;5.95;2.97;;;;;;;-141.50;100.00;63355.56;4907450;29;20056;-86
2024/03/26 09:27:11;;;;;;;6.05;2.92;;;;;;;-141.50;100.00;63355.56;4902673;28;20128;-86
2024/03/26 09:29:36;;;;;;;5.95;2.92;;;;;;;-141.50;100.00;63355.56;4924391;29;20124;-85
2024/03/26 09:32:03;;;;;;;6.68;2.92;;;;;;;-141.50;100.00;63355.56;4932669;28;20055;-86
2024/03/26 09:34:30;;;;;;;5.75;2.75;;;;;;;-141.50;100.00;63355.56;4917285;29;20195;-86
2024/03/26 09:36:56;;;;;;;7.07;2.58;;;;;;;-141.50;100.00;63355.56;4919282;28;20473;-87
2024/03/26 09:39:22;;;;;;;3.33;2.47;;;;;;;-141.50;100.00;63355.56;4907435;29;20048;-86
2024/03/26 09:41:48;;;;;;;5.72;2.63;;;;;;;-141.50;100.00;63355.56;4914366;29;20115;-86
2024/03/26 09:44:14;;;;;;;5.65;2.50;;;;;;;-141.50;100.00;63355.56;4914702;28;20079;-86
2024/03/26 09:46:42;;;;;;;4.95;2.55;;;;;;;-141.50;100.00;63355.56;4919143;29;20162;-84
2024/03/26 09:49:10;;;;;;;5.70;2.70;;;;;;;-141.50;100.00;63355.56;4919531;29;20147;-88
2024/03/26 09:51:38;;;;;;;6.13;2.70;;;;;;;-141.50;100.00;63355.56;4920330;29;20051;-87
2024/03/26 09:54:04;;;;;;;7.45;3.08;;;;;;;-141.50;100.00;63355.56;4920058;29;20075;-87
2024/03/26 09:56:30;;;;;;;6.30;2.78;;;;;;;-141.50;100.00;63355.56;4921254;29;20164;-85
2024/03/26 09:58:57;;;;;;;4.85;2.15;;;;;;;-141.50;100.00;63355.56;4922698;28;20052;-85
2024/03/26 10:01:26;;;;;;;5.13;2.50;;;;;;;-141.50;100.00;63355.56;4921389;29;20051;-86
2024/03/26 10:03:56;;;;;;;5.07;2.45;;;;;;;-141.50;100.00;63355.56;4936158;29;20062;-86
2024/03/26 10:06:22;;;;;;;6.03;2.05;;;;;;;-141.50;100.00;63355.56;4940009;28;20054;-85
2024/03/26 10:08:49;;;;;;;4.18;2.20;;;;;;;-141.50;100.00;63355.56;4916326;28;20067;-86
2024/03/26 10:11:15;;;;;;;5.07;2.35;;;;;;;-141.50;100.00;63355.56;4911886;29;20489;-86
2024/03/26 10:13:41;;;;;;;4.47;2.45;;;;;;;-141.50;100.00;63355.56;4921465;29;20056;-86
2024/03/26 10:16:07;;;;;;;4.03;2.17;;;;;;;-141.50;100.00;63355.56;4913561;29;20074;-86
2024/03/26 10:18:33;;;;;;;4.63;2.00;;;;;;;-141.50;100.00;63355.56;4921417;29;20054;-84
2024/03/26 10:20:59;;;;;;;4.88;2.20;;;;;;;-141.50;100.00;63355.56;4921324;29;20047;-85
2024/03/26 10:23:27;;;;;;;6.00;1.92;;;;;;;-141.50;100.00;63355.56;4923104;29;20051;-85
2024/03/26 10:25:53;;;;;;;4.57;2.20;;;;;;;-141.50;100.00;63355.56;4910666;29;20099;-85
2024/03/26 10:28:22;;;;;;;6.03;2.22;;;;;;;-141.50;100.00;63355.56;4928666;29;20051;-86
2024/03/26 10:30:51;;;;;;;3.80;1.90;;;;;;;-141.50;100.00;63355.56;4918349;29;20139;-87
2024/03/26 10:33:19;;;;;;;4.13;2.08;;;;;;;-141.50;100.00;63355.56;4928265;29;20099;-86
2024/03/26 10:35:56;;;;;;;2.97;1.95;;;;;;;-141.50;100.00;63355.56;4920857;29;20042;-87
2024/03/26 10:38:24;;;;;;;3.45;2.03;;;;;;;-141.50;100.00;63355.56;4930042;29;20036;-85
2024/03/26 10:40:59;;;;;;;3.47;2.00;;;;;;;-141.50;100.00;63355.56;4912377;29;20090;-85
2024/03/26 10:43:29;;;;;;;3.55;1.88;;;;;;;-141.50;100.00;63355.56;4931218;29;20033;-86
2024/03/26 10:45:57;;;;;;;3.65;1.70;;;;;;;-141.50;100.00;63355.56;4916059;29;20568;-87
2024/03/26 10:48:24;;;;;;;5.72;1.90;;;;;;;-141.50;100.00;63355.56;4925038;29;20396;-86
2024/03/26 10:50:52;;;;;;;5.63;1.80;;;;;;;-141.50;100.00;63355.56;4925945;29;20055;-85
2024/03/26 10:53:22;;;;;;;2.75;1.52;;;;;;;-141.50;100.00;63355.56;4913307;29;20040;-85
2024/03/26 10:55:50;;;;;;;5.07;2.00;;;;;;;-141.50;100.00;63355.56;4911411;29;20055;-86
2024/03/26 10:58:17;;;;;;;5.00;2.03;;;;;;;-141.50;100.00;63355.56;4918982;29;20572;-86
2024/03/26 11:00:46;;;;;;;4.20;1.73;;;;;;;-141.50;100.00;63355.56;4922512;29;20116;-87
2024/03/26 11:03:14;;;;;;;4.25;1.83;;;;;;;-141.50;100.00;63355.56;4919992;29;20067;-86